createdAt,value
2022-11-21T00:01:30.589Z,8.40
2022-11-21T00:06:30.072Z,10.20
2022-11-21T00:11:28.191Z,11.57
2022-11-21T00:16:26.337Z,8.20
2022-11-21T00:21:24.491Z,11.23
2022-11-21T00:26:23.968Z,7.80
2022-11-21T00:31:23.427Z,11.97
2022-11-21T00:36:21.671Z,9.60
2022-11-21T00:41:19.820Z,10.20
2022-11-21T00:46:19.493Z,10.57
2022-11-21T00:51:17.733Z,6.97
2022-11-21T00:56:16.858Z,8.00
2022-11-21T01:01:16.650Z,12.23
2022-11-21T01:06:16.699Z,11.73
2022-11-21T01:11:17.075Z,11.20
2022-11-21T01:16:16.605Z,10.63
2022-11-21T01:21:18.615Z,10.87
2022-11-21T01:26:18.259Z,10.77
2022-11-21T01:31:18.099Z,10.07
2022-11-21T01:36:19.208Z,8.10
2022-11-21T01:41:19.136Z,12.57
2022-11-21T01:46:18.825Z,13.00
2022-11-21T01:51:22.368Z,10.87
2022-11-21T01:56:21.790Z,9.87
2022-11-21T02:01:20.291Z,10.30
2022-11-21T02:06:19.885Z,11.30
2022-11-21T02:11:24.716Z,10.13
2022-11-21T02:16:23.485Z,13.17
2022-11-21T02:21:41.625Z,7.97
2022-11-21T02:26:42.561Z,9.27
2022-11-21T02:31:40.732Z,12.60
2022-11-21T02:36:43.298Z,11.40
2022-11-21T02:41:49.968Z,10.53
2022-11-21T02:46:51.233Z,10.33
2022-11-21T02:51:49.719Z,9.57
2022-11-21T02:56:49.201Z,11.77
2022-11-21T03:01:47.336Z,10.83
2022-11-21T03:06:45.479Z,8.30
2022-11-21T03:11:43.600Z,10.20
2022-11-21T03:16:43.136Z,12.43
2022-11-21T03:21:41.230Z,11.87
2022-11-21T03:26:39.386Z,12.33
2022-11-21T03:31:37.616Z,9.37
2022-11-21T03:36:37.260Z,12.70
2022-11-21T03:41:35.445Z,12.90
2022-11-21T03:46:35.627Z,13.20
2022-11-21T03:51:34.245Z,9.70
2022-11-21T03:56:34.396Z,11.40
2022-11-21T04:01:36.404Z,12.93
2022-11-21T04:06:35.297Z,13.93
2022-11-21T04:11:34.774Z,14.17
2022-11-21T04:16:32.876Z,9.37
2022-11-21T04:21:30.993Z,8.30
2022-11-21T04:26:29.166Z,11.30
2022-11-21T04:31:28.658Z,10.13
2022-11-21T04:36:26.824Z,9.10
2022-11-21T04:41:25.017Z,13.27
2022-11-21T04:46:23.120Z,12.43
2022-11-21T04:51:22.553Z,9.60
2022-11-21T04:56:20.674Z,10.33
2022-11-21T05:01:18.881Z,9.10
2022-11-21T05:06:17.003Z,9.20
2022-11-21T05:11:33.577Z,10.10
2022-11-21T05:16:33.628Z,8.93
2022-11-21T05:21:31.824Z,8.80
2022-11-21T05:26:31.289Z,7.70
2022-11-21T05:31:29.391Z,13.17
2022-11-21T05:36:27.449Z,9.43
2022-11-21T05:41:25.598Z,9.83
2022-11-21T05:46:26.644Z,11.57
2022-11-21T05:51:24.830Z,11.27
2022-11-21T05:56:22.918Z,10.90
2022-11-21T06:01:41.193Z,9.70
2022-11-21T06:06:41.651Z,8.67
2022-11-21T06:11:39.731Z,6.50
2022-11-21T06:16:37.847Z,10.20
2022-11-21T06:21:40.444Z,7.80
2022-11-21T06:26:39.913Z,10.97
2022-11-21T06:31:38.098Z,7.93
2022-11-21T06:36:36.329Z,9.00
2022-11-21T06:41:34.457Z,7.80
2022-11-21T06:46:33.943Z,9.80
2022-11-21T06:51:32.044Z,7.30
2022-11-21T06:56:32.225Z,8.93
2022-11-21T07:01:30.413Z,8.90
2022-11-21T07:06:29.936Z,11.83
2022-11-21T07:11:28.454Z,9.70
2022-11-21T07:16:30.707Z,8.53
2022-11-21T07:21:30.237Z,7.90
2022-11-21T07:26:28.327Z,7.50
2022-11-21T07:31:26.781Z,7.23
2022-11-21T07:36:24.923Z,7.60
2022-11-21T07:41:24.415Z,7.30
2022-11-21T07:46:22.600Z,8.20
2022-11-21T07:51:20.830Z,8.37
2022-11-21T07:56:19.154Z,10.73
2022-11-21T08:01:18.848Z,6.90
2022-11-21T08:06:17.294Z,8.13
2022-11-21T08:11:15.416Z,9.97
2022-11-21T08:16:13.525Z,8.60
2022-11-21T08:21:18.496Z,9.80
2022-11-21T08:26:18.566Z,9.33
2022-11-21T08:31:16.701Z,8.57
2022-11-21T08:36:16.198Z,8.07
2022-11-21T08:41:31.610Z,8.33
2022-11-21T08:46:30.205Z,11.37
2022-11-21T08:51:29.686Z,11.57
2022-11-21T08:56:27.943Z,8.37
2022-11-21T09:01:26.219Z,7.70
2022-11-21T09:06:24.372Z,8.80
2022-11-21T09:11:25.035Z,7.63
2022-11-21T09:16:40.809Z,8.20
2022-11-21T09:21:38.939Z,7.63
2022-11-21T09:26:38.434Z,10.30
2022-11-21T09:31:36.554Z,10.80
2022-11-21T09:36:34.694Z,10.97
2022-11-21T09:41:53.859Z,8.87
2022-11-21T09:46:59.602Z,7.70
2022-11-21T09:51:58.787Z,8.27
2022-11-21T09:56:57.830Z,8.30
2022-11-21T10:01:57.550Z,13.63
2022-11-21T10:07:04.039Z,9.13
2022-11-21T10:12:29.348Z,7.73
2022-11-21T10:17:43.155Z,8.03
2022-11-21T10:23:01.435Z,11.03
2022-11-21T10:28:05.129Z,7.60
2022-11-21T10:33:06.868Z,8.90
2022-11-21T10:38:20.126Z,7.50
2022-11-21T10:43:48.926Z,6.33
2022-11-21T10:48:56.027Z,7.70
2022-11-21T10:54:23.284Z,9.10
2022-11-21T10:59:30.556Z,6.07
2022-11-21T11:04:40.625Z,7.40
2022-11-21T11:09:46.947Z,6.40
2022-11-21T11:14:52.654Z,5.50
2022-11-21T11:20:03.455Z,6.77
2022-11-21T11:25:06.335Z,6.73
2022-11-21T11:30:08.781Z,5.20
2022-11-21T11:35:22.055Z,7.60
2022-11-21T11:40:27.065Z,4.50
2022-11-21T11:46:00.470Z,8.23
2022-11-21T11:51:38.203Z,5.30
2022-11-21T11:56:38.645Z,8.70
2022-11-21T12:01:42.259Z,5.60
2022-11-21T12:08:05.980Z,5.70
2022-11-21T12:12:15.803Z,4.80
2022-11-21T12:17:18.471Z,4.60
2022-11-21T12:22:17.970Z,5.50
2022-11-21T12:27:25.614Z,3.60
2022-11-21T12:32:39.025Z,4.37
2022-11-21T12:37:49.194Z,5.00
2022-11-21T12:42:57.316Z,3.13
2022-11-21T12:48:34.551Z,4.00
2022-11-21T12:53:59.105Z,3.43
2022-11-21T12:58:58.258Z,3.80
2022-11-21T13:04:01.294Z,3.57
2022-11-21T13:09:03.206Z,2.97
2022-11-21T13:14:06.132Z,4.23
2022-11-21T13:19:13.686Z,4.33
2022-11-21T13:24:33.752Z,2.80
2022-11-21T13:29:32.285Z,2.67
2022-11-21T13:34:39.051Z,2.57
2022-11-21T13:39:39.325Z,2.73
2022-11-21T13:44:41.736Z,3.43
2022-11-21T13:49:51.566Z,2.87
2022-11-21T13:55:19.202Z,3.53
2022-11-21T14:00:30.845Z,3.43
2022-11-21T14:05:59.699Z,3.40
2022-11-21T14:17:40.050Z,3.63
2022-11-21T14:22:45.707Z,4.00
2022-11-21T14:27:47.916Z,3.60
2022-11-21T14:32:53.900Z,3.53
2022-11-21T14:37:53.042Z,3.13
2022-11-21T14:42:51.551Z,3.97
2022-11-21T14:47:52.903Z,4.50
2022-11-21T14:52:57.067Z,4.80
2022-11-21T14:57:55.835Z,3.60
2022-11-21T15:02:57.836Z,4.13
2022-11-21T15:08:17.115Z,3.00
2022-11-21T15:13:20.241Z,2.73
2022-11-21T15:18:27.930Z,3.70
2022-11-21T15:23:29.087Z,2.87
2022-11-21T15:28:27.876Z,4.00
2022-11-21T15:33:27.396Z,3.50
2022-11-21T15:38:29.037Z,4.70
2022-11-21T15:43:45.454Z,3.00
2022-11-21T15:48:47.058Z,4.20
2022-11-21T15:53:45.424Z,5.17
2022-11-21T15:58:44.028Z,4.70
2022-11-21T16:03:44.019Z,6.57
2022-11-21T16:08:42.256Z,6.53
2022-11-21T16:13:40.505Z,7.77
2022-11-21T16:18:38.854Z,11.50
2022-11-21T16:23:38.586Z,7.30
2022-11-21T16:28:37.353Z,7.37
2022-11-21T16:33:36.468Z,9.77
2022-11-21T16:38:34.560Z,10.70
2022-11-21T16:43:34.170Z,6.37
2022-11-21T16:48:32.417Z,9.47
2022-11-21T16:53:31.915Z,10.43
2022-11-21T16:58:30.073Z,11.30
2022-11-21T17:03:29.527Z,8.87
2022-11-21T17:08:29.901Z,16.70
2022-11-21T17:13:29.424Z,17.40
2022-11-21T17:25:16.984Z,13.80
2022-11-21T17:30:15.962Z,9.30
2022-11-21T17:35:14.263Z,12.60
2022-11-21T17:40:13.234Z,9.97
2022-11-21T17:45:12.893Z,12.40
2022-11-21T17:50:11.145Z,9.97
2022-11-21T18:01:59.778Z,12.57
2022-11-21T18:13:54.331Z,11.90
2022-11-21T18:18:54.206Z,14.43
2022-11-21T18:23:54.048Z,10.83
2022-11-21T18:29:07.173Z,12.20
2022-11-21T18:34:13.979Z,11.80
2022-11-21T18:39:14.806Z,14.73
2022-11-21T18:44:21.465Z,12.80
2022-11-21T18:49:21.484Z,10.60
2022-11-21T18:54:19.627Z,13.10
2022-11-21T18:59:17.747Z,13.80
2022-11-21T19:04:15.957Z,12.90
2022-11-21T19:09:15.565Z,13.43
2022-11-21T19:14:13.781Z,11.37
2022-11-21T19:24:34.503Z,8.97
2022-11-21T19:29:33.151Z,11.33
2022-11-21T19:34:31.317Z,7.43
2022-11-21T19:39:31.254Z,9.50
2022-11-21T19:44:31.038Z,7.13
2022-11-21T19:49:29.359Z,9.53
2022-11-21T19:54:27.938Z,6.90
2022-11-21T19:59:26.716Z,8.50
2022-11-21T20:04:26.849Z,8.93
2022-11-21T20:09:25.501Z,13.57
2022-11-21T20:14:23.654Z,12.93
2022-11-21T20:19:24.060Z,10.07
2022-11-21T20:24:23.628Z,10.27
2022-11-21T20:29:21.828Z,10.10
2022-11-21T20:34:19.978Z,8.67
2022-11-21T20:39:19.039Z,11.60
2022-11-21T20:49:39.065Z,5.97
2022-11-21T20:54:37.244Z,7.70
2022-11-21T20:59:36.728Z,8.60
2022-11-21T21:04:34.842Z,9.37
2022-11-21T21:09:32.994Z,7.97
2022-11-21T21:14:31.139Z,8.53
2022-11-21T21:19:31.044Z,10.73
2022-11-21T21:24:29.444Z,6.63
2022-11-21T21:29:27.757Z,8.90
2022-11-21T21:34:45.503Z,9.30
2022-11-21T21:39:43.666Z,7.97
2022-11-21T21:44:41.783Z,8.10
2022-11-21T21:49:39.961Z,5.30
2022-11-21T21:54:39.619Z,5.53
2022-11-21T21:59:38.057Z,4.30
2022-11-21T22:11:27.293Z,10.47
2022-11-21T22:16:26.087Z,7.80
2022-11-21T22:21:27.842Z,7.77
2022-11-21T22:26:27.443Z,6.60
2022-11-21T22:31:25.624Z,6.53
2022-11-21T22:36:24.300Z,7.00
2022-11-21T22:41:23.775Z,8.90
2022-11-21T22:46:24.525Z,8.40
2022-11-21T22:51:24.228Z,8.80
2022-11-21T22:56:24.003Z,9.17
2022-11-21T23:01:24.817Z,9.90
2022-11-21T23:06:25.245Z,6.20
2022-11-21T23:11:26.170Z,7.77
2022-11-21T23:16:26.664Z,7.10
2022-11-21T23:21:24.913Z,11.27
2022-11-21T23:26:23.102Z,5.83
2022-11-21T23:31:21.282Z,7.30
2022-11-21T23:36:20.884Z,8.63
2022-11-21T23:41:19.404Z,9.80
2022-11-21T23:46:18.614Z,7.70
2022-11-21T23:51:16.729Z,7.77
2022-11-21T23:56:16.260Z,8.00
